Airfield :
LOGIN :

Register | Disclaimer

   EN    FR    IT 

 










Legend :    VFR   Marginal VFR   IFR   Intensive IFR   Very Intensive IFR
Visi :
Ceiling :
>= 8 km
>= 3000ft
5 to 8 km
1000 to 3000 ft
1500m to 5 km
500 to 1000 ft
800 to 1500m
200 to 500 ft
< 800m
< 200 ft
Symbols :   Thunderstorms  Fog  Heavy snow  Heavy precipitations  Wind > 20 kt
SIGMETs :     Misc.  Thunderstorms  Icing  Turbulence  Mountain Waves  Volcanic Ashes







- Airport Elevation : 597 ft
- IATA code : PDV


LBPD - Plovdiv

CURRENT METAR :
  • 222330Z AUTO 00000KT 9999 NCD 08/02 Q1022

EXPIRED METARs :
  • 222300Z AUTO 08003KT 9999 NCD 07/02 Q1022
  • 222230Z AUTO 09005KT 9999 NCD 08/02 Q1022
  • 222200Z AUTO 10003KT 050V120 9999 NCD 08/02 Q1022
  • 222130Z AUTO 14005KT 9999 NCD 08/02 Q1022
  • 222100Z AUTO 11006KT 080V140 9999 NCD 08/02 Q1022

TAF TAF LBPD
Valid from the 23 at 00:00 until the 24 at 00:00 UTC


222300Z 2300/2324 10010KT 9999 SCT070
BECMG 2301/2303 SCT040 BKN060
TEMPO 2304/2312 5000 RA SCT020 OVC050
PROB40 2306/2309 3000 RA BKN015 OVC030
BECMG 2309/2311 13020KT
BECMG 2316/2318 13008KT
No reported NOTAMs for that airfield.



MET'MAP, your aeronautical weather chart ! - Copyright ORBIFLY December 2007 - Disclaimer

ORBIFLY MET'MAP TEAM :

Programming & Development : Alexandra Zaïnal
Concept & Development : Baudouin d'Aumeries
Co-Development & Prog : Marc-Olivier Méhu
Technical & hardware support : Manuel Goepfert

Contact : metmap@orbifly.com




SOURCES & CREDITS :

   NOAA